Archiv-/Tagesdaten

--Timestamp---	Temp	Chill	HIndex	Humid	Dewpt	 Wind 	HiWind	WindDir	Rain 	Barom	Solar	 ET  	 UV 
--------------	----	-----	------	-----	-----	------	------	-------	-----	-----	-----	-----	----
20101229 00:00	-4.8	-4.8	-4.8	84	-7.1	0	0	-100000	0.0	1024.1	0	0.000	0.0
20101229 00:05	-4.8	-4.8	-4.8	85	-6.9	0	0	-100000	0.0	1024.0	0	0.000	0.0
20101229 00:10	-4.8	-4.8	-4.8	85	-6.9	0	0	-100000	0.0	1024.0	0	0.000	0.0
20101229 00:15	-4.8	-4.8	-4.8	85	-6.9	0	0	-100000	0.0	1024.0	0	0.000	0.0
20101229 00:20	-4.8	-4.8	-4.8	85	-6.9	0	0	-100000	0.0	1024.0	0	0.000	0.0
20101229 00:25	-4.8	-4.8	-4.8	85	-6.9	0	0	-100000	0.0	1024.0	0	0.000	0.0
20101229 00:30	-4.8	-4.8	-4.8	85	-6.9	0	0	-100000	0.0	1024.0	0	0.000	0.0
20101229 00:35	-4.8	-4.8	-4.8	85	-6.9	0	0	-100000	0.0	1023.9	0	0.000	0.0
20101229 00:40	-4.8	-4.8	-4.8	85	-6.9	0	0	-100000	0.0	1023.9	0	0.000	0.0
20101229 00:45	-4.8	-4.8	-4.8	85	-6.9	0	0	-100000	0.0	1023.9	0	0.000	0.0
20101229 00:50	-4.7	-4.7	-4.7	85	-6.9	0	0	-100000	0.0	1023.9	0	0.000	0.0
20101229 00:55	-4.6	-4.6	-4.6	86	-6.5	0	0	-100000	0.0	1023.8	0	0.000	0.0
20101229 01:00	-4.4	-4.4	-4.4	85	-6.6	0	0	-100000	0.0	1023.9	0	0.000	0.0
20101229 01:05	-4.3	-4.3	-4.3	85	-6.5	0	0	-100000	0.0	1023.9	0	0.000	0.0
20101229 01:10	-4.3	-4.3	-4.3	85	-6.5	0	0	-100000	0.0	1023.9	0	0.000	0.0
20101229 01:15	-4.4	-4.4	-4.4	85	-6.6	0	0	-100000	0.0	1023.8	0	0.000	0.0
20101229 01:20	-4.5	-4.5	-4.5	85	-6.6	0	3	158	0.0	1023.8	0	0.000	0.0
20101229 01:25	-4.6	-4.6	-4.6	85	-6.7	2	3	158	0.0	1023.8	0	0.000	0.0
20101229 01:30	-4.7	-4.7	-4.7	86	-6.6	2	5	158	0.0	1023.9	0	0.000	0.0
20101229 01:35	-4.7	-4.7	-4.7	86	-6.6	2	5	158	0.0	1023.9	0	0.000	0.0
20101229 01:40	-4.7	-4.7	-4.7	86	-6.6	0	5	158	0.0	1024.0	0	0.000	0.0
20101229 01:45	-4.6	-4.6	-4.6	87	-6.4	0	0	-100000	0.0	1023.9	0	0.000	0.0
20101229 01:50	-4.6	-4.6	-4.6	87	-6.4	0	0	-100000	0.0	1023.9	0	0.000	0.0
20101229 01:55	-4.5	-4.5	-4.5	87	-6.3	0	0	-100000	0.0	1023.9	0	0.000	0.0
20101229 02:00	-4.4	-4.4	-4.4	87	-6.3	0	0	-100000	0.0	1023.9	0	0.000	0.0
20101229 02:05	-4.4	-4.4	-4.4	87	-6.3	0	0	-100000	0.0	1024.0	0	0.000	0.0
20101229 02:10	-4.4	-4.4	-4.4	87	-6.3	0	0	-100000	0.0	1024.1	0	0.000	0.0
20101229 02:15	-4.4	-4.4	-4.4	87	-6.3	0	2	158	0.0	1024.1	-100000	0.000	0.0
20101229 02:20	-4.6	-4.6	-4.6	87	-6.4	2	3	158	0.0	1024.2	0	0.000	0.0
20101229 02:25	-4.7	-4.7	-4.7	87	-6.5	0	3	158	0.0	1024.3	0	0.000	0.0
20101229 02:30	-4.7	-4.7	-4.7	87	-6.5	2	5	158	0.0	1024.4	0	0.000	0.0
20101229 02:35	-4.7	-4.7	-4.7	87	-6.5	0	3	158	0.0	1024.6	0	0.000	0.0
20101229 02:40	-4.7	-4.7	-4.7	87	-6.5	0	0	-100000	0.0	1024.6	0	0.000	0.0
20101229 02:45	-4.7	-4.7	-4.7	87	-6.5	0	0	-100000	0.0	1024.4	0	0.000	0.0
20101229 02:50	-4.7	-4.7	-4.7	87	-6.5	0	0	-100000	0.0	1024.4	0	0.000	0.0
20101229 02:55	-4.6	-4.6	-4.6	88	-6.2	0	2	158	0.0	1024.4	0	0.000	0.0
20101229 03:00	-4.5	-4.5	-4.5	88	-6.2	0	0	-100000	0.0	1024.4	0	0.000	0.0
20101229 03:05	-4.5	-4.5	-4.5	87	-6.3	0	2	158	0.0	1024.5	0	0.000	0.0
20101229 03:10	-4.5	-4.5	-4.5	87	-6.3	0	2	158	0.0	1024.4	0	0.000	0.0
20101229 03:15	-4.5	-4.5	-4.5	87	-6.3	0	2	158	0.0	1024.5	0	0.000	0.0
20101229 03:20	-4.5	-4.5	-4.5	87	-6.3	2	3	158	0.0	1024.5	0	0.000	0.0
20101229 03:25	-4.6	-4.6	-4.6	87	-6.4	2	5	158	0.0	1024.4	0	0.000	0.0
20101229 03:30	-4.6	-4.6	-4.6	88	-6.2	3	5	158	0.0	1024.4	0	0.000	0.0
20101229 03:35	-4.6	-4.6	-4.6	87	-6.4	3	6	158	0.0	1024.4	0	0.000	0.0
20101229 03:40	-4.7	-4.7	-4.7	88	-6.3	3	6	158	0.0	1024.3	0	0.000	0.0
20101229 03:45	-4.7	-4.7	-4.7	88	-6.3	3	5	158	0.0	1024.2	0	0.000	0.0
20101229 03:50	-4.6	-4.6	-4.6	88	-6.3	2	5	158	0.0	1024.2	0	0.000	0.0
20101229 03:55	-4.6	-4.6	-4.6	88	-6.2	0	3	158	0.0	1024.2	0	0.000	0.0
20101229 04:00	-4.6	-4.6	-4.6	88	-6.2	0	0	-100000	0.0	1024.2	0	0.000	0.0
20101229 04:05	-4.5	-4.5	-4.5	88	-6.2	0	5	158	0.0	1024.2	0	0.000	0.0
20101229 04:10	-4.5	-4.5	-4.5	88	-6.2	5	6	158	0.0	1024.2	0	0.000	0.0
20101229 04:15	-4.5	-4.5	-4.5	87	-6.3	3	5	158	0.0	1024.2	0	0.000	0.0
20101229 04:20	-4.5	-4.5	-4.5	87	-6.3	2	6	158	0.0	1024.3	0	0.000	0.0
20101229 04:25	-4.4	-4.4	-4.4	87	-6.3	2	5	158	0.0	1024.3	0	0.000	0.0
20101229 04:30	-4.4	-4.4	-4.4	86	-6.4	3	5	158	0.0	1024.3	0	0.000	0.0
20101229 04:35	-4.4	-4.4	-4.4	86	-6.4	0	3	158	0.0	1024.3	0	0.000	0.0
20101229 04:40	-4.3	-4.3	-4.3	87	-6.2	0	2	158	0.0	1024.3	0	0.000	0.0
20101229 04:45	-4.2	-4.2	-4.2	87	-6.1	0	3	158	0.0	1024.2	0	0.000	0.0
20101229 04:50	-4.2	-4.2	-4.2	86	-6.2	0	0	-100000	0.0	1024.1	0	0.000	0.0
20101229 04:55	-4.0	-4.0	-4.0	86	-6.0	0	0	-100000	0.0	1024.1	0	0.000	0.0
20101229 05:00	-3.9	-3.9	-3.9	86	-5.9	0	0	-100000	0.0	1024.2	0	0.000	0.0
20101229 05:05	-3.9	-3.9	-3.9	86	-5.9	0	0	-100000	0.0	1024.1	0	0.000	0.0
20101229 05:10	-4.0	-4.0	-4.0	86	-6.0	0	0	-100000	0.0	1024.2	0	0.000	0.0
20101229 05:15	-4.0	-4.0	-4.0	86	-6.0	0	0	-100000	0.0	1024.4	0	0.000	0.0
20101229 05:20	-4.1	-4.1	-4.1	85	-6.2	2	3	158	0.0	1024.3	0	0.000	0.0
20101229 05:25	-4.2	-4.2	-4.2	85	-6.3	2	5	158	0.0	1024.4	0	0.000	0.0
20101229 05:30	-4.3	-4.3	-4.3	86	-6.3	3	5	158	0.0	1024.4	0	0.000	0.0
20101229 05:35	-4.4	-4.4	-4.4	86	-6.4	3	6	158	0.0	1024.4	0	0.000	0.0
20101229 05:40	-4.7	-4.7	-4.7	85	-6.8	3	5	158	0.0	1024.5	0	0.000	0.0
20101229 05:45	-4.9	-4.9	-4.9	85	-7.0	2	5	158	0.0	1024.5	0	0.000	0.0
20101229 05:50	-5.1	-5.1	-5.1	86	-7.0	0	0	-100000	0.0	1024.5	0	0.000	0.0
20101229 05:55	-5.1	-5.1	-5.1	86	-7.1	3	5	158	0.0	1024.4	0	0.000	0.0
20101229 06:00	-5.2	-5.2	-5.2	86	-7.2	3	5	158	0.0	1024.4	0	0.000	0.0
20101229 06:05	-5.2	-5.2	-5.2	87	-7.0	3	5	158	0.0	1024.4	0	0.000	0.0
20101229 06:10	-5.3	-5.3	-5.3	87	-7.1	2	5	158	0.0	1024.4	0	0.000	0.0
20101229 06:15	-5.3	-5.3	-5.3	87	-7.2	0	5	158	0.0	1024.4	0	0.000	0.0
20101229 06:20	-5.3	-5.3	-5.3	87	-7.2	2	5	158	0.0	1024.4	0	0.000	0.0
20101229 06:25	-5.4	-5.4	-5.4	87	-7.2	3	5	158	0.0	1024.4	0	0.000	0.0
20101229 06:30	-5.4	-5.4	-5.4	87	-7.3	3	5	158	0.0	1024.4	0	0.000	0.0
20101229 06:35	-5.4	-5.4	-5.4	87	-7.3	0	3	158	0.0	1024.4	0	0.000	0.0
20101229 06:40	-5.5	-5.5	-5.5	87	-7.3	0	2	158	0.0	1024.5	0	0.000	0.0
20101229 06:45	-5.6	-5.6	-5.6	87	-7.4	0	3	158	0.0	1024.5	0	0.000	0.0
20101229 06:50	-5.6	-5.6	-5.6	87	-7.4	3	5	158	0.0	1024.6	0	0.000	0.0
20101229 06:55	-5.8	-5.8	-5.8	87	-7.6	3	6	158	0.0	1024.5	0	0.000	0.0
20101229 07:00	-5.9	-5.9	-5.9	87	-7.7	2	5	158	0.0	1024.5	0	0.000	0.0
20101229 07:05	-5.9	-5.9	-5.9	88	-7.6	2	6	158	0.0	1024.7	0	0.000	0.0
20101229 07:10	-6.1	-6.1	-6.1	88	-7.7	2	5	158	0.0	1024.8	0	0.000	0.0
20101229 07:15	-6.1	-6.1	-6.1	88	-7.7	2	3	158	0.0	1024.9	0	0.000	0.0
20101229 07:20	-6.1	-6.1	-6.1	88	-7.7	2	5	158	0.0	1024.9	0	0.000	0.0
20101229 07:25	-6.1	-6.1	-6.1	88	-7.8	3	5	158	0.0	1024.9	0	0.000	0.0
20101229 07:30	-6.1	-6.1	-6.1	88	-7.8	2	3	158	0.0	1024.8	0	0.000	0.0
20101229 07:35	-6.1	-6.1	-6.1	88	-7.8	2	3	158	0.0	1024.9	0	0.000	0.0
20101229 07:40	-6.1	-6.1	-6.1	88	-7.8	2	6	158	0.0	1024.8	0	0.000	0.0
20101229 07:45	-6.2	-6.2	-6.2	88	-7.8	5	6	158	0.0	1024.9	0	0.000	0.0
20101229 07:50	-6.2	-6.2	-6.2	88	-7.9	3	6	158	0.0	1024.9	0	0.000	0.0
20101229 07:55	-6.3	-6.3	-6.3	88	-7.9	2	5	158	0.0	1024.9	0	0.000	0.0
20101229 08:00	-6.2	-6.2	-6.2	88	-7.9	3	5	158	0.0	1024.9	1	0.000	0.0
20101229 08:05	-6.2	-6.2	-6.2	88	-7.9	3	6	158	0.0	1025.1	8	0.000	0.0
20101229 08:10	-6.2	-6.2	-6.2	88	-7.9	3	6	158	0.0	1024.9	6	0.000	0.0
20101229 08:15	-6.2	-6.2	-6.2	88	-7.9	5	6	158	0.0	1024.9	5	0.000	0.0
20101229 08:20	-6.2	-6.2	-6.2	88	-7.8	5	6	158	0.0	1025.0	8	0.000	0.0
20101229 08:25	-6.1	-6.1	-6.1	88	-7.8	3	5	158	0.0	1024.9	11	0.000	0.0
20101229 08:30	-6.0	-6.0	-6.0	88	-7.7	2	5	158	0.0	1024.9	12	0.000	0.0
20101229 08:35	-5.9	-5.9	-5.9	88	-7.6	0	3	158	0.0	1024.9	12	0.000	0.0
20101229 08:40	-5.8	-5.8	-5.8	88	-7.5	0	0	-100000	0.0	1025.0	19	0.000	0.0
20101229 08:45	-5.7	-5.7	-5.7	88	-7.4	0	0	-100000	0.0	1024.9	26	0.000	0.0
20101229 08:50	-5.6	-5.6	-5.6	88	-7.3	0	0	-100000	0.0	1024.9	23	0.000	0.0
20101229 08:55	-5.4	-5.4	-5.4	88	-7.1	0	0	-100000	0.0	1024.9	26	0.000	0.0
20101229 09:00	-5.3	-5.3	-5.3	88	-7.0	0	2	158	0.0	1024.9	31	0.000	0.0
20101229 09:05	-5.3	-5.3	-5.3	87	-7.1	0	0	-100000	0.0	1024.9	36	0.000	0.0
20101229 09:10	-5.2	-5.2	-5.2	87	-7.0	0	3	112	0.0	1024.9	40	0.000	0.0
20101229 09:15	-5.1	-5.1	-5.1	87	-6.9	0	2	112	0.0	1025.0	40	0.000	0.0
20101229 09:20	-5.1	-5.1	-5.1	87	-6.9	0	3	112	0.0	1024.9	40	0.000	0.0
20101229 09:25	-5.1	-5.1	-5.1	86	-7.0	3	5	112	0.0	1025.0	44	0.000	0.0
20101229 09:30	-5.2	-5.2	-5.2	86	-7.1	3	6	112	0.0	1025.1	49	0.000	0.0
20101229 09:35	-5.4	-5.4	-5.4	86	-7.4	5	6	112	0.0	1025.1	54	0.000	0.0
20101229 09:40	-5.5	-5.5	-5.5	86	-7.5	3	6	112	0.0	1025.1	58	0.000	0.0
20101229 09:45	-5.5	-5.5	-5.5	86	-7.5	2	3	112	0.0	1025.1	61	0.000	0.0
20101229 09:50	-5.5	-5.5	-5.5	86	-7.5	5	6	112	0.0	1025.1	60	0.000	0.0
20101229 09:55	-5.6	-5.6	-5.6	86	-7.5	3	6	112	0.0	1025.1	67	0.000	0.0
20101229 10:00	-5.4	-5.4	-5.4	86	-7.4	3	6	112	0.0	1025.1	71	0.025	0.0
20101229 10:05	-5.4	-5.4	-5.4	86	-7.4	3	6	112	0.0	1025.1	64	0.000	0.0
20101229 10:10	-5.4	-5.4	-5.4	86	-7.4	3	6	112	0.0	1025.1	66	0.000	0.0
20101229 10:15	-5.3	-5.3	-5.3	86	-7.3	3	5	112	0.0	1025.2	91	0.000	0.0
20101229 10:20	-5.2	-5.2	-5.2	86	-7.2	0	3	112	0.0	1025.2	97	0.000	0.0
20101229 10:25	-5.1	-5.1	-5.1	86	-7.0	0	3	112	0.0	1025.2	105	0.000	0.0
20101229 10:30	-4.9	-4.9	-4.9	86	-6.9	3	5	112	0.0	1025.0	120	0.000	0.0
20101229 10:35	-4.8	-4.8	-4.8	86	-6.8	3	5	112	0.0	1025.0	138	0.000	0.0
20101229 10:40	-4.7	-4.7	-4.7	85	-6.9	5	8	112	0.0	1024.7	150	0.000	0.0
20101229 10:45	-4.7	-4.7	-4.7	85	-6.9	5	8	22	0.0	1024.7	143	0.000	0.0
20101229 10:50	-4.6	-4.6	-4.6	86	-6.6	5	6	22	0.0	1024.8	140	0.000	0.5
20101229 10:55	-4.6	-4.6	-4.6	86	-6.6	3	6	22	0.0	1024.8	137	0.000	0.5
20101229 11:00	-4.5	-4.5	-4.5	85	-6.6	5	6	22	0.0	1024.7	149	0.025	0.5
20101229 11:05	-4.5	-4.5	-4.5	85	-6.6	3	6	22	0.0	1024.9	151	0.000	0.5
20101229 11:10	-4.3	-4.3	-4.3	85	-6.5	3	6	22	0.0	1024.9	161	0.000	0.6
20101229 11:15	-4.3	-4.3	-4.3	85	-6.4	3	6	22	0.0	1024.9	172	0.000	0.6
20101229 11:20	-4.2	-4.2	-4.2	85	-6.4	2	5	22	0.0	1024.9	161	0.000	0.6
20101229 11:25	-4.1	-4.1	-4.1	85	-6.3	2	5	22	0.0	1024.7	148	0.000	0.6
20101229 11:30	-4.1	-4.1	-4.1	84	-6.4	3	5	22	0.0	1024.7	140	0.000	0.6
20101229 11:35	-4.1	-4.1	-4.1	84	-6.4	3	6	22	0.0	1024.7	141	0.000	0.6
20101229 11:40	-4.1	-4.1	-4.1	84	-6.4	3	6	22	0.0	1024.7	153	0.000	0.6
20101229 11:45	-3.9	-3.9	-3.9	84	-6.2	2	5	22	0.0	1024.6	152	0.000	0.6
20101229 11:50	-3.8	-3.8	-3.8	84	-6.1	2	5	22	0.0	1024.6	151	0.000	0.6
20101229 11:55	-3.8	-3.8	-3.8	84	-6.1	3	6	22	0.0	1024.6	174	0.000	0.6
20101229 12:00	-3.7	-3.7	-3.7	84	-6.0	5	6	22	0.0	1024.5	192	0.051	0.7
20101229 12:05	-3.7	-6.4	-3.7	84	-6.0	6	10	22	0.0	1024.5	199	0.000	0.7
20101229 12:10	-3.6	-6.3	-3.6	84	-5.9	6	10	22	0.0	1024.3	209	0.000	0.7
20101229 12:15	-3.4	-3.4	-3.4	83	-5.9	5	8	22	0.0	1024.2	198	0.000	0.7
20101229 12:20	-3.4	-6.8	-3.4	83	-5.9	8	10	22	0.0	1024.1	208	0.000	0.7
20101229 12:25	-3.3	-3.3	-3.3	83	-5.8	5	6	22	0.0	1024.1	209	0.000	0.7
20101229 12:30	-3.2	-3.2	-3.2	83	-5.7	5	10	22	0.0	1024.0	208	0.000	0.7
20101229 12:35	-3.1	-3.1	-3.1	83	-5.5	3	6	22	0.0	1023.9	214	0.000	0.7
20101229 12:40	-3.0	-3.0	-3.0	82	-5.6	5	8	22	0.0	1024.0	189	0.000	0.7
20101229 12:45	-2.8	-2.8	-2.8	82	-5.5	3	6	22	0.0	1024.1	167	0.000	0.6
20101229 12:50	-2.9	-2.9	-2.9	82	-5.6	5	8	22	0.0	1023.9	157	0.000	0.6
20101229 12:55	-3.0	-3.0	-3.0	82	-5.6	5	8	22	0.0	1023.9	143	0.000	0.6
20101229 13:00	-3.0	-3.0	-3.0	82	-5.6	5	8	22	0.0	1023.9	131	0.051	0.6
20101229 13:05	-3.1	-3.1	-3.1	82	-5.7	5	8	22	0.0	1023.9	124	0.000	0.5
20101229 13:10	-3.0	-5.6	-3.0	82	-5.6	6	8	22	0.0	1023.9	122	0.000	0.5
20101229 13:15	-3.0	-5.6	-3.0	82	-5.6	6	10	22	0.0	1023.8	128	0.000	0.5
20101229 13:20	-2.9	-2.9	-2.9	82	-5.6	3	6	22	0.0	1023.9	128	0.000	0.5
20101229 13:25	-2.9	-2.9	-2.9	82	-5.6	5	8	22	0.0	1023.9	123	0.000	0.1
20101229 13:30	-3.0	-5.6	-3.0	82	-5.6	6	8	22	0.0	1023.9	130	0.000	0.0
20101229 13:35	-3.1	-5.8	-3.1	82	-5.7	6	10	22	0.0	1023.8	133	0.000	0.0
20101229 13:40	-3.2	-5.8	-3.2	83	-5.6	6	10	22	0.0	1023.9	115	0.000	0.0
20101229 13:45	-3.2	-6.5	-3.2	82	-5.8	8	10	22	0.0	1023.9	91	0.000	0.0
20101229 13:50	-3.2	-6.5	-3.2	82	-5.9	8	11	22	0.0	1024.0	79	0.000	0.0
20101229 13:55	-3.3	-6.0	-3.3	83	-5.7	6	10	22	0.0	1024.0	76	0.000	0.0
20101229 14:00	-3.4	-6.1	-3.4	82	-6.0	6	10	22	0.0	1023.9	81	0.051	0.0
20101229 14:05	-3.4	-6.2	-3.4	82	-6.1	6	11	22	0.0	1023.9	87	0.000	0.0
20101229 14:10	-3.5	-6.2	-3.5	82	-6.1	6	11	22	0.0	1023.9	86	0.000	0.0
20101229 14:15	-3.4	-3.4	-3.4	83	-5.9	5	8	45	0.0	1023.8	82	0.000	0.0
20101229 14:20	-3.4	-3.4	-3.4	83	-5.9	5	11	45	0.0	1023.9	80	0.000	0.0
20101229 14:25	-3.4	-3.4	-3.4	83	-5.9	5	8	45	0.0	1023.9	73	0.000	0.0
20101229 14:30	-3.4	-3.4	-3.4	83	-5.9	5	8	45	0.0	1023.8	67	0.000	0.0
20101229 14:35	-3.5	-3.5	-3.5	83	-6.0	3	8	22	0.0	1023.8	63	0.000	0.0
20101229 14:40	-3.6	-3.6	-3.6	83	-6.0	5	8	45	0.0	1023.8	67	0.000	0.0
20101229 14:45	-3.6	-6.4	-3.6	83	-6.1	6	8	45	0.0	1023.9	64	0.000	0.0
20101229 14:50	-3.7	-3.7	-3.7	83	-6.1	5	6	45	0.0	1024.0	61	0.000	0.0
20101229 14:55	-3.7	-3.7	-3.7	84	-6.0	5	6	45	0.0	1024.0	59	0.000	0.0
20101229 15:00	-3.7	-3.7	-3.7	84	-6.0	3	6	45	0.0	1024.1	68	0.025	0.0
20101229 15:05	-3.7	-3.7	-3.7	84	-6.0	3	6	45	0.0	1024.1	78	0.000	0.0
20101229 15:10	-3.6	-3.6	-3.6	85	-5.8	2	6	45	0.0	1024.0	91	0.000	0.0
20101229 15:15	-3.6	-3.6	-3.6	85	-5.7	5	8	22	0.0	1024.0	88	0.000	0.0
20101229 15:20	-3.6	-3.6	-3.6	85	-5.8	5	6	45	0.0	1023.9	83	0.000	0.0
20101229 15:25	-3.7	-3.7	-3.7	85	-5.8	5	8	45	0.0	1024.2	75	0.000	0.0
20101229 15:30	-3.7	-3.7	-3.7	86	-5.7	5	8	45	0.0	1024.1	61	0.000	0.0
20101229 15:35	-3.8	-3.8	-3.8	86	-5.8	5	8	45	0.0	1024.1	42	0.000	0.0
20101229 15:40	-3.9	-6.7	-3.9	86	-5.9	6	8	45	0.0	1024.2	28	0.000	0.0
20101229 15:45	-4.0	-4.0	-4.0	86	-6.0	5	10	45	0.0	1024.2	24	0.000	0.0
20101229 15:50	-4.1	-4.1	-4.1	86	-6.0	5	8	45	0.0	1024.2	20	0.000	0.0
20101229 15:55	-4.1	-4.1	-4.1	87	-5.9	5	8	45	0.0	1024.2	20	0.000	0.0
20101229 16:00	-4.1	-4.1	-4.1	87	-5.9	5	8	45	0.0	1024.3	16	0.025	0.0
20101229 16:05	-4.1	-4.1	-4.1	87	-5.9	5	6	45	0.0	1024.1	12	0.000	0.0
20101229 16:10	-4.1	-4.1	-4.1	87	-5.9	3	8	45	0.0	1024.0	13	0.000	0.0
20101229 16:15	-4.1	-4.1	-4.1	87	-5.9	5	6	68	0.0	1024.0	12	0.000	0.0
20101229 16:20	-4.0	-4.0	-4.0	87	-5.8	3	5	68	0.0	1024.1	8	0.000	0.0
20101229 16:25	-3.9	-3.9	-3.9	87	-5.8	3	6	68	0.0	1024.1	4	0.000	0.0
20101229 16:30	-3.9	-3.9	-3.9	87	-5.8	0	3	68	0.0	1024.1	0	0.000	0.0
20101229 16:35	-3.9	-3.9	-3.9	87	-5.8	0	2	68	0.0	1024.1	0	0.000	0.0
20101229 16:40	-3.9	-3.9	-3.9	87	-5.7	0	0	-100000	0.0	1024.1	0	0.000	0.0
20101229 16:45	-3.8	-3.8	-3.8	87	-5.7	0	0	-100000	0.0	1024.1	0	0.000	0.0
20101229 16:50	-3.8	-3.8	-3.8	87	-5.6	0	3	68	0.0	1024.1	0	0.000	0.0
20101229 16:55	-3.7	-3.7	-3.7	87	-5.6	3	6	68	0.0	1024.2	0	0.000	0.0
20101229 17:00	-3.8	-6.6	-3.8	86	-5.8	6	8	22	0.0	1024.2	0	0.000	0.0
20101229 17:05	-4.0	-6.8	-4.0	86	-6.0	6	10	22	0.0	1024.5	0	0.000	0.0
20101229 17:10	-4.1	-6.9	-4.1	86	-6.0	6	11	22	0.0	1024.5	0	0.000	0.0
20101229 17:15	-4.2	-7.1	-4.2	86	-6.2	6	11	45	0.0	1024.6	0	0.000	0.0
20101229 17:20	-4.3	-7.2	-4.3	86	-6.3	6	10	45	0.0	1024.7	0	0.000	0.0
20101229 17:25	-4.4	-4.4	-4.4	86	-6.4	5	10	68	0.0	1024.7	0	0.000	0.0
20101229 17:30	-4.4	-7.3	-4.4	86	-6.4	6	10	68	0.0	1024.7	0	0.000	0.0
20101229 17:35	-4.4	-4.4	-4.4	86	-6.4	5	8	68	0.0	1024.7	0	0.000	0.0
20101229 17:40	-4.5	-4.5	-4.5	86	-6.5	5	10	45	0.0	1024.8	0	0.000	0.0
20101229 17:45	-4.6	-4.6	-4.6	86	-6.5	3	5	45	0.0	1024.8	0	0.000	0.0
20101229 17:50	-4.6	-7.4	-4.6	87	-6.4	6	8	45	0.0	1024.9	0	0.000	0.0
20101229 17:55	-4.6	-7.5	-4.6	87	-6.4	6	10	45	0.0	1024.9	0	0.000	0.0
20101229 18:00	-4.6	-4.6	-4.6	87	-6.4	5	6	45	0.0	1024.9	0	0.000	0.0
20101229 18:05	-4.6	-4.6	-4.6	87	-6.4	5	8	45	0.0	1025.0	0	0.000	0.0
20101229 18:10	-4.6	-4.6	-4.6	87	-6.4	5	8	45	0.0	1025.1	-100000	0.000	0.0
20101229 18:15	-4.6	-4.6	-4.6	87	-6.4	5	8	68	0.0	1025.1	0	0.000	0.0
20101229 18:20	-4.7	-4.7	-4.7	87	-6.5	5	8	45	0.0	1025.2	0	0.000	0.0
20101229 18:25	-4.7	-4.7	-4.7	88	-6.3	3	6	45	0.0	1025.3	0	0.000	0.0
20101229 18:30	-4.7	-4.7	-4.7	88	-6.3	0	3	45	0.0	1025.2	0	0.000	0.0
20101229 18:35	-4.6	-4.6	-4.6	88	-6.3	2	5	45	0.0	1025.2	0	0.000	0.0
20101229 18:40	-4.5	-4.5	-4.5	89	-6.0	2	5	45	0.0	1025.2	0	0.000	0.0
20101229 18:45	-4.5	-4.5	-4.5	89	-6.0	2	5	45	0.0	1025.2	0	0.000	0.0
20101229 18:50	-4.4	-4.4	-4.4	89	-6.0	3	6	45	0.0	1025.2	0	0.000	0.0
20101229 18:55	-4.3	-4.3	-4.3	89	-5.9	2	5	45	0.0	1025.3	0	0.000	0.0
20101229 19:00	-4.2	-4.2	-4.2	89	-5.8	2	5	45	0.0	1025.4	0	0.000	0.0
20101229 19:05	-4.3	-4.3	-4.3	89	-5.8	3	6	45	0.0	1025.4	0	0.000	0.0
20101229 19:10	-4.3	-4.3	-4.3	89	-5.9	2	5	45	0.0	1025.4	0	0.000	0.0
20101229 19:15	-4.3	-4.3	-4.3	89	-5.9	3	5	45	0.0	1025.5	0	0.000	0.0
20101229 19:20	-4.4	-4.4	-4.4	89	-5.9	2	5	45	0.0	1025.4	0	0.000	0.0
20101229 19:25	-4.3	-4.3	-4.3	89	-5.9	3	6	45	0.0	1025.4	0	0.000	0.0
20101229 19:30	-4.3	-4.3	-4.3	89	-5.9	3	6	68	0.0	1025.4	0	0.000	0.0
20101229 19:35	-4.3	-4.3	-4.3	89	-5.9	3	6	68	0.0	1025.2	0	0.000	0.0
20101229 19:40	-4.3	-4.3	-4.3	89	-5.9	0	3	68	0.0	1025.3	0	0.000	0.0
20101229 19:45	-4.3	-4.3	-4.3	89	-5.8	0	0	-100000	0.0	1025.4	0	0.000	0.0
20101229 19:50	-4.2	-4.2	-4.2	89	-5.8	0	0	-100000	0.0	1025.4	0	0.000	0.0
20101229 19:55	-4.2	-4.2	-4.2	89	-5.7	0	0	-100000	0.0	1025.2	0	0.000	0.0
20101229 20:00	-4.1	-4.1	-4.1	90	-5.4	0	0	-100000	0.0	1025.2	0	0.000	0.0
20101229 20:05	-4.0	-4.0	-4.0	90	-5.4	0	0	-100000	0.0	1025.2	0	0.000	0.0
20101229 20:10	-3.9	-3.9	-3.9	90	-5.3	0	0	-100000	0.0	1025.3	0	0.000	0.0
20101229 20:15	-3.8	-3.8	-3.8	90	-5.2	0	0	-100000	0.0	1025.3	0	0.000	0.0
20101229 20:20	-3.8	-3.8	-3.8	89	-5.3	0	0	-100000	0.0	1025.3	0	0.000	0.0
20101229 20:25	-3.8	-3.8	-3.8	90	-5.2	0	0	-100000	0.0	1025.2	0	0.000	0.0
20101229 20:30	-3.8	-3.8	-3.8	89	-5.3	0	0	-100000	0.0	1025.2	0	0.000	0.0
20101229 20:35	-3.8	-3.8	-3.8	89	-5.3	0	0	-100000	0.0	1025.2	0	0.000	0.0
20101229 20:40	-3.8	-3.8	-3.8	89	-5.3	0	3	68	0.0	1025.2	0	0.000	0.0
20101229 20:45	-3.8	-3.8	-3.8	89	-5.3	0	2	68	0.0	1025.2	0	0.000	0.0
20101229 20:50	-3.8	-3.8	-3.8	89	-5.4	0	3	68	0.0	1025.3	0	0.000	0.0
20101229 20:55	-3.8	-3.8	-3.8	89	-5.4	0	0	-100000	0.0	1025.3	0	0.000	0.0
20101229 21:00	-3.8	-3.8	-3.8	89	-5.4	0	3	68	0.0	1025.1	0	0.000	0.0
20101229 21:05	-3.8	-3.8	-3.8	89	-5.4	0	3	68	0.0	1025.2	0	0.000	0.0
20101229 21:10	-3.8	-3.8	-3.8	89	-5.3	0	0	-100000	0.0	1025.2	0	0.000	0.0
20101229 21:15	-3.8	-3.8	-3.8	89	-5.3	0	3	68	0.0	1025.2	0	0.000	0.0
20101229 21:20	-3.8	-3.8	-3.8	89	-5.3	3	6	68	0.0	1025.2	0	0.000	0.0
20101229 21:25	-3.8	-3.8	-3.8	89	-5.4	5	6	45	0.0	1025.3	0	0.000	0.0
20101229 21:30	-3.9	-3.9	-3.9	89	-5.4	3	6	45	0.0	1025.3	0	0.000	0.0
20101229 21:35	-3.9	-3.9	-3.9	89	-5.5	3	6	45	0.0	1025.2	0	0.000	0.0
20101229 21:40	-3.9	-3.9	-3.9	89	-5.5	3	6	45	0.0	1025.1	0	0.000	0.0
20101229 21:45	-4.0	-4.0	-4.0	89	-5.5	3	6	45	0.0	1025.2	0	0.000	0.0
20101229 21:50	-4.1	-4.1	-4.1	89	-5.6	5	8	45	0.0	1025.3	0	0.000	0.0
20101229 21:55	-4.1	-4.1	-4.1	89	-5.6	3	5	45	0.0	1025.3	0	0.000	0.0
20101229 22:00	-4.1	-4.1	-4.1	89	-5.6	3	6	45	0.0	1025.2	0	0.000	0.0
20101229 22:05	-4.1	-4.1	-4.1	89	-5.6	0	0	-100000	0.0	1025.0	0	0.000	0.0
20101229 22:10	-4.1	-4.1	-4.1	89	-5.6	2	5	45	0.0	1025.1	0	0.000	0.0
20101229 22:15	-4.1	-4.1	-4.1	89	-5.6	0	5	45	0.0	1025.0	0	0.000	0.0
20101229 22:20	-4.1	-4.1	-4.1	89	-5.6	0	5	45	0.0	1025.0	0	0.000	0.0
20101229 22:25	-4.1	-4.1	-4.1	89	-5.6	2	6	45	0.0	1025.1	0	0.000	0.0
20101229 22:30	-4.0	-4.0	-4.0	89	-5.5	5	8	45	0.0	1025.1	0	0.000	0.0
20101229 22:35	-4.1	-4.1	-4.1	89	-5.6	5	6	45	0.0	1025.1	0	0.000	0.0
20101229 22:40	-4.1	-4.1	-4.1	89	-5.6	5	8	45	0.0	1025.2	0	0.000	0.0
20101229 22:45	-4.1	-4.1	-4.1	89	-5.6	3	6	45	0.0	1025.2	0	0.000	0.0
20101229 22:50	-4.1	-4.1	-4.1	88	-5.8	5	6	45	0.0	1025.2	0	0.000	0.0
20101229 22:55	-4.2	-4.2	-4.2	88	-5.9	5	8	45	0.0	1025.2	0	0.000	0.0
20101229 23:00	-4.2	-4.2	-4.2	88	-5.9	5	6	45	0.0	1025.1	0	0.000	0.0
20101229 23:05	-4.2	-4.2	-4.2	89	-5.7	5	8	45	0.0	1025.0	0	0.000	0.0
20101229 23:10	-4.1	-4.1	-4.1	89	-5.6	5	8	45	0.0	1025.0	0	0.000	0.0
20101229 23:15	-4.2	-4.2	-4.2	88	-5.9	2	5	45	0.0	1025.0	0	0.000	0.0
20101229 23:20	-4.2	-4.2	-4.2	88	-5.9	2	5	45	0.0	1025.0	0	0.000	0.0
20101229 23:25	-4.2	-4.2	-4.2	88	-5.9	2	5	45	0.0	1025.1	0	0.000	0.0
20101229 23:30	-4.2	-4.2	-4.2	88	-5.9	3	6	45	0.0	1025.0	0	0.000	0.0
20101229 23:35	-4.2	-4.2	-4.2	88	-5.9	2	3	45	0.0	1025.2	0	0.000	0.0
20101229 23:40	-4.2	-4.2	-4.2	88	-5.9	3	6	45	0.0	1025.1	0	0.000	0.0
20101229 23:45	-4.2	-4.2	-4.2	88	-5.9	5	8	45	0.0	1025.2	0	0.000	0.0
20101229 23:50	-4.3	-4.3	-4.3	88	-6.0	5	8	45	0.0	1025.2	0	0.000	0.0
20101229 23:55	-4.4	-4.4	-4.4	88	-6.1	5	8	45	0.0	1025.2	0	0.000	0.0



Please note the license to use and transfer of this data:
http://creativecommons.org/licenses/by-nc-sa/3.0/deed.en

Bitte beachten sie die Lizenz zur Verwertung und Weitergabe der Daten:
http://creativecommons.org/licenses/by-nc-sa/3.0/deed.de

zurück zur Übersicht der Archivdaten (Monats und Tagesdaten)

Cookies helfen bei der Bereitstellung von Inhalten. Durch die Nutzung dieser Seiten erklärst du dich damit einverstanden, dass Cookies auf deinem Rechner gespeichert werden. Weitere Information